createdAt,value
2019-05-13T00:00:49.176Z,76.30
2019-05-13T00:03:19.006Z,76.70
2019-05-13T00:05:49.066Z,77.40
2019-05-13T00:08:21.658Z,81.00
2019-05-13T00:10:51.032Z,78.80
2019-05-13T00:13:25.618Z,77.30
2019-05-13T00:15:55.705Z,76.20
2019-05-13T00:18:25.774Z,76.60
2019-05-13T00:20:56.137Z,75.40
2019-05-13T00:23:26.198Z,78.00
2019-05-13T00:25:58.631Z,75.80
2019-05-13T00:28:28.769Z,76.80
2019-05-13T00:30:58.554Z,76.30
2019-05-13T00:33:28.890Z,78.40
2019-05-13T00:35:58.860Z,75.90
2019-05-13T00:38:29.493Z,76.30
2019-05-13T00:41:03.911Z,76.10
2019-05-13T00:43:34.204Z,76.70
2019-05-13T00:46:04.136Z,75.50
2019-05-13T00:48:33.882Z,76.90
2019-05-13T00:51:03.991Z,75.30
2019-05-13T00:53:35.308Z,74.70
2019-05-13T00:56:05.726Z,74.60
2019-05-13T00:58:35.941Z,74.30
2019-05-13T01:01:06.146Z,74.70
2019-05-13T01:03:36.051Z,76.10
2019-05-13T01:06:06.313Z,76.20
2019-05-13T01:08:36.384Z,76.10
2019-05-13T01:11:06.721Z,77.40
2019-05-13T01:13:37.079Z,76.60
2019-05-13T01:16:07.008Z,81.40
2019-05-13T01:18:37.292Z,79.60
2019-05-13T01:21:07.116Z,78.50
2019-05-13T01:23:37.457Z,79.50
2019-05-13T01:26:07.670Z,80.10
2019-05-13T01:28:37.411Z,79.50
2019-05-13T01:31:07.200Z,77.20
2019-05-13T01:33:37.148Z,79.00
2019-05-13T01:36:06.855Z,78.50
2019-05-13T01:38:37.115Z,77.50
2019-05-13T01:41:07.353Z,76.80
2019-05-13T01:43:39.646Z,79.20
2019-05-13T01:46:09.471Z,77.10
2019-05-13T01:48:39.827Z,80.70
2019-05-13T01:51:09.999Z,76.90
2019-05-13T01:53:46.114Z,78.80
2019-05-13T01:56:16.238Z,79.10
2019-05-13T01:58:50.287Z,83.90
2019-05-13T02:01:20.482Z,81.80
2019-05-13T02:03:51.467Z,85.50
2019-05-13T02:06:21.395Z,83.50
2019-05-13T02:08:51.797Z,81.60
2019-05-13T02:11:24.888Z,87.30
2019-05-13T02:13:55.191Z,87.40
2019-05-13T02:16:25.609Z,91.00
2019-05-13T02:18:56.766Z,88.70
2019-05-13T02:21:27.122Z,91.40
2019-05-13T02:23:58.011Z,90.30
2019-05-13T02:26:28.459Z,89.20
2019-05-13T02:28:58.660Z,86.00
2019-05-13T02:31:41.390Z,90.60
2019-05-13T02:34:02.454Z,91.40
2019-05-13T02:36:33.338Z,91.90
2019-05-13T02:39:05.646Z,90.50
2019-05-13T02:41:37.058Z,88.60
2019-05-13T02:44:07.094Z,90.60
2019-05-13T02:46:37.326Z,87.80
2019-05-13T02:49:12.239Z,84.30
2019-05-13T02:51:50.104Z,87.90
2019-05-13T02:54:22.909Z,88.70
2019-05-13T02:56:52.766Z,90.10
2019-05-13T02:59:23.859Z,89.90
2019-05-13T03:01:54.528Z,86.40
2019-05-13T03:04:24.751Z,84.90
2019-05-13T03:06:54.650Z,85.50
2019-05-13T03:09:25.550Z,83.40
2019-05-13T03:11:56.443Z,87.40
2019-05-13T03:14:26.875Z,87.90
2019-05-13T03:17:03.610Z,89.10
2019-05-13T03:19:33.735Z,87.70
2019-05-13T03:22:04.142Z,86.10
2019-05-13T03:24:34.918Z,88.70
2019-05-13T03:27:05.174Z,87.50
2019-05-13T03:29:36.529Z,86.10
2019-05-13T03:32:07.655Z,90.50
2019-05-13T03:34:38.420Z,91.90
2019-05-13T03:37:14.651Z,87.60
2019-05-13T03:39:43.410Z,88.20
2019-05-13T03:42:14.847Z,90.10
2019-05-13T03:44:47.679Z,87.90
2019-05-13T03:47:23.067Z,90.70
2019-05-13T03:49:56.121Z,86.80
2019-05-13T03:52:26.525Z,88.50
2019-05-13T03:54:57.143Z,85.30
2019-05-13T03:57:27.913Z,84.50
2019-05-13T03:59:57.867Z,89.60
2019-05-13T04:02:28.048Z,87.80
2019-05-13T04:05:03.565Z,83.10
2019-05-13T04:07:32.594Z,83.40
2019-05-13T04:10:03.684Z,81.30
2019-05-13T04:12:34.474Z,86.00
2019-05-13T04:15:04.630Z,84.80
2019-05-13T04:17:42.952Z,89.00
2019-05-13T04:20:13.306Z,82.10
2019-05-13T04:22:44.564Z,85.80
2019-05-13T04:25:15.189Z,90.20
2019-05-13T04:27:45.434Z,85.60
2019-05-13T04:30:15.986Z,89.10
2019-05-13T04:32:45.817Z,88.10
2019-05-13T04:35:22.253Z,90.50
2019-05-13T04:37:52.670Z,87.30
2019-05-13T04:40:23.932Z,86.10
2019-05-13T04:42:54.428Z,84.70
2019-05-13T04:45:24.466Z,86.70
2019-05-13T04:47:56.139Z,86.10
2019-05-13T04:50:44.961Z,89.40
2019-05-13T04:53:15.494Z,90.10
2019-05-13T04:55:45.540Z,88.20
2019-05-13T04:58:15.551Z,84.00
2019-05-13T05:01:32.196Z,89.20
2019-05-13T05:04:11.451Z,87.50
2019-05-13T05:07:18.197Z,84.90
2019-05-13T05:10:26.411Z,89.00
2019-05-13T05:13:27.540Z,88.00
2019-05-13T05:16:27.150Z,88.20
2019-05-13T05:19:23.883Z,89.60
2019-05-13T05:22:02.863Z,87.90
2019-05-13T05:25:17.352Z,87.50
2019-05-13T05:28:41.429Z,89.10
2019-05-13T05:31:45.636Z,88.30
2019-05-13T05:34:41.945Z,87.40
2019-05-13T05:37:58.602Z,85.20
2019-05-13T05:40:34.147Z,85.40
2019-05-13T05:43:04.905Z,86.20
2019-05-13T05:45:37.816Z,83.00
2019-05-13T05:48:08.389Z,82.80
2019-05-13T05:50:39.149Z,82.90
2019-05-13T05:53:11.120Z,85.60
2019-05-13T05:55:43.144Z,82.20
2019-05-13T05:58:14.895Z,84.40
2019-05-13T06:00:46.588Z,85.00
2019-05-13T06:03:17.162Z,80.90
2019-05-13T06:05:51.252Z,81.50
2019-05-13T06:08:22.168Z,81.40
2019-05-13T06:10:53.745Z,79.70
2019-05-13T06:13:24.124Z,79.00
2019-05-13T06:15:55.806Z,79.80
2019-05-13T06:18:25.673Z,81.50
2019-05-13T06:20:55.853Z,79.20
2019-05-13T06:23:26.711Z,75.20
2019-05-13T06:25:56.996Z,83.00
2019-05-13T06:28:32.083Z,81.00
2019-05-13T06:31:03.004Z,79.40
2019-05-13T06:33:33.138Z,77.40
2019-05-13T06:36:03.361Z,78.90
2019-05-13T06:38:33.846Z,76.90
2019-05-13T06:41:08.068Z,73.20
2019-05-13T06:43:35.789Z,80.00
2019-05-13T06:46:05.657Z,73.70
2019-05-13T06:48:36.392Z,75.40
2019-05-13T06:51:14.075Z,75.40
2019-05-13T06:53:58.142Z,76.00
2019-05-13T06:56:32.292Z,84.30
2019-05-13T06:59:02.243Z,75.30
2019-05-13T07:01:32.614Z,76.30
2019-05-13T07:04:03.015Z,78.00
2019-05-13T07:06:33.421Z,77.80
2019-05-13T07:09:05.104Z,77.40
2019-05-13T07:11:35.641Z,74.70
2019-05-13T07:14:05.679Z,78.70
2019-05-13T07:16:35.384Z,74.60
2019-05-13T07:19:05.350Z,75.70
2019-05-13T07:21:35.671Z,74.60
2019-05-13T07:24:05.769Z,74.30
2019-05-13T07:26:35.874Z,75.00
2019-05-13T07:29:06.606Z,71.90
2019-05-13T07:31:37.264Z,69.70
2019-05-13T07:34:06.907Z,69.10
2019-05-13T07:36:37.851Z,68.10
2019-05-13T07:39:11.966Z,69.30
2019-05-13T07:41:43.172Z,65.70
2019-05-13T07:44:13.195Z,69.40
2019-05-13T07:46:43.552Z,69.00
2019-05-13T07:49:13.593Z,68.90
2019-05-13T07:51:43.922Z,72.30
2019-05-13T07:54:14.355Z,70.70
2019-05-13T07:56:43.930Z,69.60
2019-05-13T07:59:13.800Z,72.20
2019-05-13T08:01:43.576Z,66.40
2019-05-13T08:04:22.522Z,68.60
2019-05-13T08:06:44.797Z,63.60
2019-05-13T08:09:14.545Z,66.90
2019-05-13T08:12:00.096Z,62.10
2019-05-13T08:14:16.363Z,64.70
2019-05-13T08:16:46.035Z,62.30
2019-05-13T08:19:16.052Z,65.20
2019-05-13T08:21:45.908Z,64.60
2019-05-13T08:24:15.590Z,62.10
2019-05-13T08:26:49.921Z,67.50
2019-05-13T08:29:21.489Z,61.80
2019-05-13T08:31:51.819Z,61.20
2019-05-13T08:34:24.111Z,58.00
2019-05-13T08:36:54.199Z,56.40
2019-05-13T08:39:26.853Z,63.10
2019-05-13T08:42:10.288Z,68.00
2019-05-13T08:44:26.973Z,62.90
2019-05-13T08:46:58.896Z,66.90
2019-05-13T08:49:29.137Z,65.70
2019-05-13T08:52:01.377Z,64.70
2019-05-13T08:54:32.760Z,65.30
2019-05-13T08:57:03.004Z,61.90
2019-05-13T08:59:33.055Z,64.20
2019-05-13T09:02:03.524Z,63.10
2019-05-13T09:04:33.678Z,59.30
2019-05-13T09:07:04.499Z,58.60
2019-05-13T09:09:34.972Z,58.70
2019-05-13T09:12:05.042Z,56.30
2019-05-13T09:14:35.129Z,55.20
2019-05-13T09:17:04.978Z,58.30
2019-05-13T09:19:34.768Z,61.70
2019-05-13T09:22:04.751Z,60.20
2019-05-13T09:24:37.777Z,60.30
2019-05-13T09:27:06.635Z,63.80
2019-05-13T09:29:38.770Z,60.10
2019-05-13T09:32:08.529Z,57.40
2019-05-13T09:34:38.753Z,57.90
2019-05-13T09:37:11.697Z,57.60
2019-05-13T09:39:41.466Z,53.30
2019-05-13T09:42:12.624Z,58.00
2019-05-13T09:44:47.348Z,61.50
2019-05-13T09:47:17.471Z,55.50
2019-05-13T09:49:47.150Z,55.90
2019-05-13T09:52:16.945Z,55.70
2019-05-13T09:54:47.015Z,57.90
2019-05-13T09:57:16.524Z,58.50
2019-05-13T09:59:46.362Z,59.90
2019-05-13T10:02:16.131Z,57.50
2019-05-13T10:04:46.113Z,56.50
2019-05-13T10:07:15.794Z,61.00
2019-05-13T10:09:48.392Z,56.00
2019-05-13T10:12:17.501Z,61.00
2019-05-13T10:14:47.603Z,55.50
2019-05-13T10:17:17.634Z,55.20
2019-05-13T10:19:47.486Z,56.10
2019-05-13T10:22:17.438Z,57.50
2019-05-13T10:24:47.827Z,53.40
2019-05-13T10:27:19.067Z,55.30
2019-05-13T10:29:58.611Z,55.90
2019-05-13T10:32:32.536Z,56.40
2019-05-13T10:35:03.691Z,57.00
2019-05-13T10:37:33.858Z,61.10
2019-05-13T10:40:05.199Z,55.80
2019-05-13T10:42:35.291Z,58.60
2019-05-13T10:45:06.911Z,54.90
2019-05-13T10:47:36.917Z,53.90
2019-05-13T10:50:06.909Z,55.90
2019-05-13T10:52:37.332Z,55.70
2019-05-13T10:55:07.249Z,54.60
2019-05-13T10:57:37.479Z,56.10
2019-05-13T11:00:08.723Z,52.60
2019-05-13T11:02:38.753Z,48.20
2019-05-13T11:05:12.202Z,54.50
2019-05-13T11:07:42.204Z,51.40
2019-05-13T11:10:13.562Z,52.20
2019-05-13T11:12:43.603Z,52.90
2019-05-13T11:15:13.506Z,54.70
2019-05-13T11:17:43.737Z,53.00
2019-05-13T11:20:13.657Z,55.60
2019-05-13T11:22:43.674Z,54.30
2019-05-13T11:25:14.326Z,54.10
2019-05-13T11:27:44.228Z,49.20
2019-05-13T11:30:15.470Z,52.40
2019-05-13T11:32:45.423Z,44.40
2019-05-13T11:35:15.596Z,51.30
2019-05-13T11:37:46.073Z,52.60
2019-05-13T11:40:16.453Z,50.40
2019-05-13T11:42:46.704Z,50.40
2019-05-13T11:45:17.080Z,51.60
2019-05-13T11:47:49.019Z,54.40
2019-05-13T11:50:22.317Z,54.20
2019-05-13T11:52:52.411Z,52.80
2019-05-13T11:55:23.134Z,55.80
2019-05-13T11:57:53.377Z,53.80
2019-05-13T12:00:53.292Z,53.90
2019-05-13T12:03:23.105Z,54.80
2019-05-13T12:05:54.195Z,58.00
2019-05-13T12:08:24.846Z,55.60
2019-05-13T12:10:54.648Z,53.20
2019-05-13T12:13:24.812Z,54.80
2019-05-13T12:15:54.973Z,57.60
2019-05-13T12:18:24.960Z,57.70
2019-05-13T12:20:54.848Z,54.70
2019-05-13T12:23:24.903Z,55.00
2019-05-13T12:25:54.927Z,57.80
2019-05-13T12:28:31.606Z,55.60
2019-05-13T12:31:03.230Z,52.70
2019-05-13T12:33:33.608Z,56.90
2019-05-13T12:36:03.562Z,54.40
2019-05-13T12:38:33.644Z,56.10
2019-05-13T12:41:05.449Z,58.00
2019-05-13T12:43:35.476Z,56.90
2019-05-13T12:46:06.015Z,57.50
2019-05-13T12:48:37.122Z,57.20
2019-05-13T12:51:06.911Z,59.00
2019-05-13T12:53:36.900Z,55.40
2019-05-13T12:56:07.244Z,54.50
2019-05-13T12:58:37.750Z,53.60
2019-05-13T13:01:13.287Z,56.80
2019-05-13T13:03:43.081Z,56.30
2019-05-13T13:06:27.166Z,57.40
2019-05-13T13:08:49.319Z,55.50
2019-05-13T13:11:22.819Z,53.30
2019-05-13T13:13:58.819Z,53.50
2019-05-13T13:16:33.081Z,51.00
2019-05-13T13:18:57.444Z,54.40
2019-05-13T13:21:33.598Z,51.60
2019-05-13T13:24:04.056Z,52.40
2019-05-13T13:26:33.500Z,52.70
2019-05-13T13:29:02.815Z,53.90
2019-05-13T13:31:33.595Z,52.60
2019-05-13T13:34:12.177Z,53.00
2019-05-13T13:36:34.921Z,55.40
2019-05-13T13:39:06.154Z,50.50
2019-05-13T13:41:35.759Z,51.20
2019-05-13T13:44:06.483Z,44.20
2019-05-13T13:46:42.994Z,50.60
2019-05-13T13:49:08.804Z,51.70
2019-05-13T13:51:44.032Z,49.10
2019-05-13T13:54:11.292Z,50.00
2019-05-13T13:56:44.037Z,46.20
2019-05-13T13:59:14.111Z,47.90
2019-05-13T14:01:44.514Z,47.20
2019-05-13T14:04:16.323Z,51.50
2019-05-13T14:09:17.848Z,50.00
2019-05-13T14:11:47.800Z,47.90
2019-05-13T14:14:28.283Z,50.90
2019-05-13T14:17:02.448Z,50.50
2019-05-13T14:19:33.837Z,50.60
2019-05-13T14:22:03.899Z,48.90
2019-05-13T14:24:34.457Z,50.70
2019-05-13T14:27:05.023Z,49.50
2019-05-13T14:29:56.306Z,47.30
2019-05-13T14:32:17.274Z,51.00
2019-05-13T14:34:47.340Z,52.40
2019-05-13T14:37:17.105Z,50.10
2019-05-13T14:39:47.278Z,52.60
2019-05-13T14:42:32.177Z,51.10
2019-05-13T14:45:02.232Z,53.50
2019-05-13T14:47:33.044Z,53.70
2019-05-13T14:50:04.471Z,53.20
2019-05-13T14:52:34.546Z,56.10
2019-05-13T14:55:04.835Z,54.00
2019-05-13T14:57:34.296Z,54.00
2019-05-13T15:00:08.690Z,54.70
2019-05-13T15:02:45.638Z,50.30
2019-05-13T15:05:16.654Z,52.70
2019-05-13T15:07:47.116Z,54.20
2019-05-13T15:10:17.161Z,52.50
2019-05-13T15:12:46.798Z,48.80
2019-05-13T15:15:16.886Z,52.80
2019-05-13T15:17:46.824Z,50.20
2019-05-13T15:20:17.036Z,53.30
2019-05-13T15:22:46.924Z,50.50
2019-05-13T15:25:17.630Z,50.50
2019-05-13T15:27:47.619Z,51.60
2019-05-13T15:30:18.516Z,55.10
2019-05-13T15:32:48.257Z,50.90
2019-05-13T15:35:17.902Z,55.60
2019-05-13T15:37:48.027Z,52.40
2019-05-13T15:40:22.022Z,51.30
2019-05-13T15:42:51.904Z,52.00
2019-05-13T15:45:22.185Z,54.70
2019-05-13T15:48:02.249Z,53.70
2019-05-13T15:50:34.816Z,52.50
2019-05-13T15:53:06.943Z,52.80
2019-05-13T15:55:37.122Z,53.80
2019-05-13T15:58:07.189Z,54.80
2019-05-13T16:00:37.315Z,55.70
2019-05-13T16:03:06.973Z,59.50
2019-05-13T16:05:36.914Z,60.20
2019-05-13T16:08:07.112Z,61.10
2019-05-13T16:10:37.076Z,57.50
2019-05-13T16:13:06.957Z,59.20
2019-05-13T16:15:36.758Z,55.20
2019-05-13T16:18:06.746Z,55.10
2019-05-13T16:20:36.742Z,57.10
2019-05-13T16:23:06.996Z,57.40
2019-05-13T16:25:37.162Z,54.80
2019-05-13T16:28:07.287Z,55.30
2019-05-13T16:30:37.940Z,55.40
2019-05-13T16:33:07.947Z,53.80
2019-05-13T16:35:37.828Z,55.70
2019-05-13T16:38:07.545Z,58.30
2019-05-13T16:40:37.300Z,54.10
2019-05-13T16:43:07.165Z,54.80
2019-05-13T16:45:37.158Z,56.60
2019-05-13T16:48:07.420Z,57.30
2019-05-13T16:50:37.943Z,58.70
2019-05-13T16:53:07.616Z,54.10
2019-05-13T16:55:38.034Z,60.10
2019-05-13T16:58:08.078Z,55.20
2019-05-13T17:00:38.130Z,57.10
2019-05-13T17:03:08.329Z,59.30
2019-05-13T17:05:38.209Z,55.40
2019-05-13T17:08:08.197Z,58.00
2019-05-13T17:10:38.227Z,57.90
2019-05-13T17:13:08.325Z,56.90
2019-05-13T17:15:38.124Z,58.80
2019-05-13T17:18:11.958Z,58.00
2019-05-13T17:20:41.440Z,56.20
2019-05-13T17:23:12.677Z,58.20
2019-05-13T17:25:43.091Z,57.20
2019-05-13T17:28:13.516Z,58.90
2019-05-13T17:30:44.387Z,61.30
2019-05-13T17:33:15.144Z,60.30
2019-05-13T17:35:44.970Z,61.00
2019-05-13T17:38:15.102Z,58.20
2019-05-13T17:40:49.585Z,60.90
2019-05-13T17:43:16.888Z,59.30
2019-05-13T17:45:47.068Z,60.50
2019-05-13T17:48:26.720Z,63.50
2019-05-13T17:50:49.121Z,55.90
2019-05-13T17:53:18.882Z,57.20
2019-05-13T17:55:51.238Z,59.90
2019-05-13T17:58:22.118Z,65.50
2019-05-13T18:00:52.204Z,63.60
2019-05-13T18:03:22.083Z,60.30
2019-05-13T18:05:52.004Z,56.50
2019-05-13T18:08:21.777Z,63.30
2019-05-13T18:11:02.174Z,56.90
2019-05-13T18:13:31.936Z,61.80
2019-05-13T18:16:02.621Z,63.60
2019-05-13T18:18:42.682Z,61.60
2019-05-13T18:21:04.495Z,64.60
2019-05-13T18:23:34.647Z,64.30
2019-05-13T18:26:05.141Z,62.70
2019-05-13T18:28:35.302Z,65.60
2019-05-13T18:31:05.242Z,61.90
2019-05-13T18:33:35.428Z,65.80
2019-05-13T18:36:05.592Z,65.20
2019-05-13T18:38:36.384Z,66.00
2019-05-13T18:41:21.362Z,61.10
2019-05-13T18:43:55.029Z,63.40
2019-05-13T18:46:27.195Z,59.30
2019-05-13T18:48:59.039Z,62.30
2019-05-13T18:51:29.121Z,59.90
2019-05-13T18:54:01.309Z,61.80
2019-05-13T18:56:32.324Z,69.60
2019-05-13T18:59:02.472Z,68.40
2019-05-13T19:01:32.697Z,65.50
2019-05-13T19:04:03.087Z,70.50
2019-05-13T19:06:33.936Z,66.10
2019-05-13T19:09:05.134Z,65.70
2019-05-13T19:11:37.003Z,65.00
2019-05-13T19:14:07.455Z,62.00
2019-05-13T19:16:37.911Z,62.40
2019-05-13T19:19:13.426Z,62.80
2019-05-13T19:21:41.643Z,65.30
2019-05-13T19:24:13.329Z,61.30
2019-05-13T19:26:43.791Z,65.20
2019-05-13T19:29:13.694Z,61.90
2019-05-13T19:31:43.399Z,62.50
2019-05-13T19:34:14.925Z,66.90
2019-05-13T19:36:44.569Z,66.40
2019-05-13T19:39:14.535Z,66.60
2019-05-13T19:41:44.725Z,68.10
2019-05-13T19:44:31.534Z,68.30
2019-05-13T19:47:14.207Z,70.70
2019-05-13T19:49:46.712Z,72.40
2019-05-13T19:52:16.899Z,74.30
2019-05-13T19:54:46.808Z,73.10
2019-05-13T19:57:16.795Z,68.20
2019-05-13T19:59:47.255Z,65.70
2019-05-13T20:02:17.654Z,70.30
2019-05-13T20:04:55.838Z,66.90
2019-05-13T20:07:25.864Z,67.60
2019-05-13T20:09:56.368Z,68.80
2019-05-13T20:12:26.356Z,73.10
2019-05-13T20:14:56.507Z,68.60
2019-05-13T20:17:26.542Z,66.80
2019-05-13T20:19:56.270Z,69.20
2019-05-13T20:22:26.035Z,72.00
2019-05-13T20:24:56.402Z,74.10
2019-05-13T20:27:26.418Z,71.50
2019-05-13T20:29:56.777Z,73.10
2019-05-13T20:32:27.052Z,70.50
2019-05-13T20:34:57.661Z,73.70
2019-05-13T20:37:28.281Z,74.10
2019-05-13T20:39:58.168Z,74.10
2019-05-13T20:42:28.818Z,76.30
2019-05-13T20:44:58.924Z,71.00
2019-05-13T20:47:29.040Z,74.50
2019-05-13T20:50:02.326Z,75.20
2019-05-13T20:52:32.026Z,75.70
2019-05-13T20:55:03.046Z,74.90
2019-05-13T20:57:33.272Z,75.10
2019-05-13T21:00:03.156Z,70.50
2019-05-13T21:02:34.499Z,69.40
2019-05-13T21:05:06.550Z,72.00
2019-05-13T21:07:37.934Z,72.10
2019-05-13T21:10:11.937Z,68.60
2019-05-13T21:12:44.640Z,67.60
2019-05-13T21:15:16.743Z,66.50
2019-05-13T21:17:48.970Z,66.50
2019-05-13T21:20:25.065Z,66.00
2019-05-13T21:22:54.085Z,66.60
2019-05-13T21:25:25.146Z,67.30
2019-05-13T21:27:55.556Z,67.30
2019-05-13T21:30:29.701Z,66.80
2019-05-13T21:33:02.100Z,67.10
2019-05-13T21:35:31.882Z,66.80
2019-05-13T21:38:01.859Z,67.10
2019-05-13T21:40:32.672Z,67.10
2019-05-13T21:43:21.624Z,66.70
2019-05-13T21:45:52.503Z,66.10
2019-05-13T21:48:22.816Z,66.70
2019-05-13T21:50:53.913Z,66.60
2019-05-13T21:53:24.710Z,66.50
2019-05-13T21:56:02.560Z,67.00
2019-05-13T21:58:33.419Z,67.20
2019-05-13T22:01:04.511Z,67.50
2019-05-13T22:03:34.826Z,67.80
2019-05-13T22:06:05.595Z,67.70
2019-05-13T22:08:36.787Z,68.30
2019-05-13T22:11:07.107Z,67.90
2019-05-13T22:13:37.158Z,68.20
2019-05-13T22:16:07.298Z,68.30
2019-05-13T22:18:37.479Z,68.30
2019-05-13T22:21:07.921Z,67.70
2019-05-13T22:23:41.016Z,67.90
2019-05-13T22:26:11.646Z,68.10
2019-05-13T22:28:41.986Z,67.50
2019-05-13T22:31:13.128Z,67.50
2019-05-13T22:33:45.178Z,67.60
2019-05-13T22:36:15.118Z,68.00
2019-05-13T22:39:05.755Z,68.20
2019-05-13T22:41:43.123Z,68.70
2019-05-13T22:44:13.988Z,69.00
2019-05-13T22:47:02.460Z,68.90
2019-05-13T22:49:38.063Z,69.10
2019-05-13T22:52:08.010Z,68.50
2019-05-13T22:54:37.875Z,68.50
2019-05-13T22:57:07.480Z,68.80
2019-05-13T22:59:38.492Z,68.90
2019-05-13T23:02:08.330Z,68.30
2019-05-13T23:04:37.986Z,67.90
2019-05-13T23:07:11.804Z,68.50
2019-05-13T23:09:42.547Z,69.10
2019-05-13T23:12:12.557Z,69.40
2019-05-13T23:14:42.647Z,69.80
2019-05-13T23:17:12.839Z,69.70
2019-05-13T23:19:42.707Z,69.40
2019-05-13T23:22:12.695Z,69.50
2019-05-13T23:24:43.226Z,69.90
2019-05-13T23:27:13.163Z,69.80
2019-05-13T23:29:43.636Z,70.30
2019-05-13T23:32:13.324Z,69.90
2019-05-13T23:34:44.344Z,69.80
2019-05-13T23:37:14.374Z,69.50
2019-05-13T23:39:44.422Z,70.40
2019-05-13T23:42:14.639Z,70.30
2019-05-13T23:44:45.184Z,70.50
2019-05-13T23:47:17.074Z,70.20
2019-05-13T23:49:47.846Z,69.80
2019-05-13T23:52:18.477Z,69.20
2019-05-13T23:54:51.632Z,69.40
2019-05-13T23:57:22.162Z,70.40
2019-05-13T23:59:52.345Z,70.60
